sensor_id;sensor_type;location;lat;lon;timestamp;pressure;altitude;pressure_sealevel;temperature;humidity
20930;BME280;21895;47.072;15.132;2023-05-22T00:01:04;96710.00;;;15.26;77.11
20930;BME280;21895;47.072;15.132;2023-05-22T00:03:32;96702.00;;;15.15;76.80
20930;BME280;21895;47.072;15.132;2023-05-22T00:05:58;96705.00;;;15.01;77.09
20930;BME280;21895;47.072;15.132;2023-05-22T00:08:26;96706.00;;;15.03;77.05
20930;BME280;21895;47.072;15.132;2023-05-22T00:10:55;96706.00;;;14.93;77.62
20930;BME280;21895;47.072;15.132;2023-05-22T00:13:22;96700.00;;;14.79;77.98
20930;BME280;21895;47.072;15.132;2023-05-22T00:15:49;96700.00;;;14.70;77.94
20930;BME280;21895;47.072;15.132;2023-05-22T00:18:15;96697.00;;;14.57;78.34
20930;BME280;21895;47.072;15.132;2023-05-22T00:20:42;96698.00;;;14.51;78.83
20930;BME280;21895;47.072;15.132;2023-05-22T00:23:12;96703.00;;;14.58;79.04
20930;BME280;21895;47.072;15.132;2023-05-22T00:25:41;96704.00;;;14.63;78.14
20930;BME280;21895;47.072;15.132;2023-05-22T00:28:08;96701.00;;;14.48;78.53
20930;BME280;21895;47.072;15.132;2023-05-22T00:30:36;96699.00;;;14.41;79.88
20930;BME280;21895;47.072;15.132;2023-05-22T00:33:03;96684.00;;;14.35;80.18
20930;BME280;21895;47.072;15.132;2023-05-22T00:35:30;96682.00;;;14.38;79.73
20930;BME280;21895;47.072;15.132;2023-05-22T00:37:56;96684.00;;;14.35;78.75
20930;BME280;21895;47.072;15.132;2023-05-22T00:40:23;96683.00;;;14.32;78.71
20930;BME280;21895;47.072;15.132;2023-05-22T00:42:50;96677.00;;;14.19;78.69
20930;BME280;21895;47.072;15.132;2023-05-22T00:45:16;96673.00;;;14.17;79.97
20930;BME280;21895;47.072;15.132;2023-05-22T00:47:43;96664.00;;;14.43;80.25
20930;BME280;21895;47.072;15.132;2023-05-22T00:50:11;96672.00;;;14.47;80.43
20930;BME280;21895;47.072;15.132;2023-05-22T00:52:42;96669.00;;;14.68;79.14
20930;BME280;21895;47.072;15.132;2023-05-22T00:55:11;96669.00;;;14.66;79.46
20930;BME280;21895;47.072;15.132;2023-05-22T00:57:40;96660.00;;;14.68;79.80
20930;BME280;21895;47.072;15.132;2023-05-22T01:00:12;96668.00;;;14.54;80.56
20930;BME280;21895;47.072;15.132;2023-05-22T01:02:38;96663.00;;;14.60;80.42
20930;BME280;21895;47.072;15.132;2023-05-22T01:05:08;96670.00;;;14.72;79.35
20930;BME280;21895;47.072;15.132;2023-05-22T01:07:38;96665.00;;;14.83;78.36
20930;BME280;21895;47.072;15.132;2023-05-22T01:10:05;96661.00;;;14.75;78.70
20930;BME280;21895;47.072;15.132;2023-05-22T01:14:32;96665.00;;;14.83;78.34
20930;BME280;21895;47.072;15.132;2023-05-22T01:17:52;96661.00;;;14.75;79.00
20930;BME280;21895;47.072;15.132;2023-05-22T01:20:30;96653.00;;;14.62;77.57
20930;BME280;21895;47.072;15.132;2023-05-22T01:24:15;96653.00;;;14.53;77.48
20930;BME280;21895;47.072;15.132;2023-05-22T01:32:33;96660.00;;;14.43;76.62
20930;BME280;21895;47.072;15.132;2023-05-22T01:35:06;96668.00;;;14.21;79.80
20930;BME280;21895;47.072;15.132;2023-05-22T01:37:35;96672.00;;;14.20;79.86
20930;BME280;21895;47.072;15.132;2023-05-22T01:40:03;96670.00;;;14.17;80.55
20930;BME280;21895;47.072;15.132;2023-05-22T01:42:34;96663.00;;;14.24;81.06
20930;BME280;21895;47.072;15.132;2023-05-22T01:45:00;96669.00;;;14.33;81.55
20930;BME280;21895;47.072;15.132;2023-05-22T01:47:27;96689.00;;;14.47;78.73
20930;BME280;21895;47.072;15.132;2023-05-22T01:49:54;96714.00;;;14.65;77.36
20930;BME280;21895;47.072;15.132;2023-05-22T02:00:19;96694.00;;;14.60;79.12
20930;BME280;21895;47.072;15.132;2023-05-22T02:02:55;96698.00;;;14.51;81.29
20930;BME280;21895;47.072;15.132;2023-05-22T02:05:25;96682.00;;;14.58;81.79
20930;BME280;21895;47.072;15.132;2023-05-22T02:07:57;96689.00;;;14.76;81.54
20930;BME280;21895;47.072;15.132;2023-05-22T02:10:28;96686.00;;;15.00;80.86
20930;BME280;21895;47.072;15.132;2023-05-22T02:12:56;96688.00;;;15.33;79.09
20930;BME280;21895;47.072;15.132;2023-05-22T02:15:22;96678.00;;;15.03;80.20
20930;BME280;21895;47.072;15.132;2023-05-22T02:17:49;96675.00;;;14.74;81.99
20930;BME280;21895;47.072;15.132;2023-05-22T02:20:18;96675.00;;;14.60;82.99
20930;BME280;21895;47.072;15.132;2023-05-22T02:22:46;96673.00;;;14.49;84.59
20930;BME280;21895;47.072;15.132;2023-05-22T02:25:14;96669.00;;;14.66;84.22
20930;BME280;21895;47.072;15.132;2023-05-22T02:27:46;96671.00;;;14.70;84.34
20930;BME280;21895;47.072;15.132;2023-05-22T02:30:14;96662.00;;;14.77;83.67
20930;BME280;21895;47.072;15.132;2023-05-22T02:32:41;96654.00;;;14.77;83.67
20930;BME280;21895;47.072;15.132;2023-05-22T02:35:09;96649.00;;;14.79;83.74
20930;BME280;21895;47.072;15.132;2023-05-22T02:37:36;96654.00;;;14.84;83.94
20930;BME280;21895;47.072;15.132;2023-05-22T02:40:04;96647.00;;;14.75;84.56
20930;BME280;21895;47.072;15.132;2023-05-22T02:42:34;96650.00;;;14.78;84.81
20930;BME280;21895;47.072;15.132;2023-05-22T02:45:01;96647.00;;;14.90;83.92
20930;BME280;21895;47.072;15.132;2023-05-22T02:47:28;96648.00;;;14.89;83.31
20930;BME280;21895;47.072;15.132;2023-05-22T02:49:54;96645.00;;;14.92;83.32
20930;BME280;21895;47.072;15.132;2023-05-22T02:52:23;96639.00;;;14.85;83.82
20930;BME280;21895;47.072;15.132;2023-05-22T02:54:50;96638.00;;;14.81;83.64
20930;BME280;21895;47.072;15.132;2023-05-22T02:57:16;96641.00;;;14.79;82.92
20930;BME280;21895;47.072;15.132;2023-05-22T02:59:43;96641.00;;;14.59;83.62
20930;BME280;21895;47.072;15.132;2023-05-22T03:02:09;96633.00;;;14.51;84.57
20930;BME280;21895;47.072;15.132;2023-05-22T03:04:37;96634.00;;;14.48;84.73
20930;BME280;21895;47.072;15.132;2023-05-22T03:07:04;96639.00;;;14.61;83.60
20930;BME280;21895;47.072;15.132;2023-05-22T03:09:32;96636.00;;;14.60;83.43
20930;BME280;21895;47.072;15.132;2023-05-22T03:11:59;96649.00;;;14.62;83.36
20930;BME280;21895;47.072;15.132;2023-05-22T03:14:25;96644.00;;;14.58;83.58
20930;BME280;21895;47.072;15.132;2023-05-22T03:16:54;96641.00;;;14.52;84.23
20930;BME280;21895;47.072;15.132;2023-05-22T03:19:21;96647.00;;;14.61;83.73
20930;BME280;21895;47.072;15.132;2023-05-22T03:21:48;96640.00;;;14.53;83.17
20930;BME280;21895;47.072;15.132;2023-05-22T03:24:15;96645.00;;;14.48;82.83
20930;BME280;21895;47.072;15.132;2023-05-22T03:26:42;96635.00;;;14.52;82.15
20930;BME280;21895;47.072;15.132;2023-05-22T03:29:09;96638.00;;;14.46;81.65
20930;BME280;21895;47.072;15.132;2023-05-22T03:31:35;96641.00;;;14.31;81.28
20930;BME280;21895;47.072;15.132;2023-05-22T03:34:02;96635.00;;;14.22;81.51
20930;BME280;21895;47.072;15.132;2023-05-22T03:36:30;96642.00;;;14.21;81.86
20930;BME280;21895;47.072;15.132;2023-05-22T03:38:59;96637.00;;;14.20;82.35
20930;BME280;21895;47.072;15.132;2023-05-22T03:41:26;96638.00;;;14.20;82.35
20930;BME280;21895;47.072;15.132;2023-05-22T03:43:52;96631.00;;;14.26;82.41
20930;BME280;21895;47.072;15.132;2023-05-22T03:46:19;96637.00;;;14.33;82.50
20930;BME280;21895;47.072;15.132;2023-05-22T03:48:45;96637.00;;;14.38;82.14
20930;BME280;21895;47.072;15.132;2023-05-22T03:51:12;96628.00;;;14.37;81.47
20930;BME280;21895;47.072;15.132;2023-05-22T03:53:38;96632.00;;;14.36;80.76
20930;BME280;21895;47.072;15.132;2023-05-22T03:56:05;96637.00;;;14.43;80.54
20930;BME280;21895;47.072;15.132;2023-05-22T03:58:32;96624.00;;;14.38;80.59
20930;BME280;21895;47.072;15.132;2023-05-22T04:00:59;96625.00;;;14.46;80.57
20930;BME280;21895;47.072;15.132;2023-05-22T04:03:29;96631.00;;;14.56;80.52
20930;BME280;21895;47.072;15.132;2023-05-22T04:05:55;96628.00;;;14.61;81.20
20930;BME280;21895;47.072;15.132;2023-05-22T04:08:22;96632.00;;;14.77;80.99
20930;BME280;21895;47.072;15.132;2023-05-22T04:10:49;96628.00;;;14.83;81.20
20930;BME280;21895;47.072;15.132;2023-05-22T04:13:16;96627.00;;;14.96;81.03
20930;BME280;21895;47.072;15.132;2023-05-22T04:15:43;96629.00;;;15.13;80.38
20930;BME280;21895;47.072;15.132;2023-05-22T04:18:12;96635.00;;;15.37;79.61
20930;BME280;21895;47.072;15.132;2023-05-22T04:20:39;96628.00;;;15.56;78.54
20930;BME280;21895;47.072;15.132;2023-05-22T04:23:06;96634.00;;;15.60;78.14
20930;BME280;21895;47.072;15.132;2023-05-22T04:25:33;96629.00;;;15.43;77.84
20930;BME280;21895;47.072;15.132;2023-05-22T04:27:59;96625.00;;;15.39;77.30
20930;BME280;21895;47.072;15.132;2023-05-22T04:30:32;96621.00;;;15.38;77.21
20930;BME280;21895;47.072;15.132;2023-05-22T04:32:59;96621.00;;;15.34;77.89
20930;BME280;21895;47.072;15.132;2023-05-22T04:35:26;96629.00;;;15.50;78.22
20930;BME280;21895;47.072;15.132;2023-05-22T04:37:56;96628.00;;;15.70;77.44
20930;BME280;21895;47.072;15.132;2023-05-22T04:40:22;96631.00;;;15.73;76.90
20930;BME280;21895;47.072;15.132;2023-05-22T04:42:49;96625.00;;;15.78;76.79
20930;BME280;21895;47.072;15.132;2023-05-22T04:45:19;96619.00;;;15.81;76.51
20930;BME280;21895;47.072;15.132;2023-05-22T04:47:53;96622.00;;;15.86;76.76
20930;BME280;21895;47.072;15.132;2023-05-22T04:50:20;96620.00;;;15.95;76.71
20930;BME280;21895;47.072;15.132;2023-05-22T04:52:47;96615.00;;;16.00;76.42
20930;BME280;21895;47.072;15.132;2023-05-22T04:55:14;96616.00;;;16.10;76.47
20930;BME280;21895;47.072;15.132;2023-05-22T04:57:40;96620.00;;;16.44;75.62
20930;BME280;21895;47.072;15.132;2023-05-22T05:00:10;96617.00;;;16.68;75.25
20930;BME280;21895;47.072;15.132;2023-05-22T05:02:39;96623.00;;;16.99;75.03
20930;BME280;21895;47.072;15.132;2023-05-22T05:05:06;96625.00;;;17.16;74.41
20930;BME280;21895;47.072;15.132;2023-05-22T05:07:37;96627.00;;;17.80;71.56
20930;BME280;21895;47.072;15.132;2023-05-22T05:10:04;96631.00;;;17.91;72.00
20930;BME280;21895;47.072;15.132;2023-05-22T05:12:32;96623.00;;;18.15;72.14
20930;BME280;21895;47.072;15.132;2023-05-22T05:14:58;96625.00;;;18.49;71.85
20930;BME280;21895;47.072;15.132;2023-05-22T05:17:28;96627.00;;;18.77;70.22
20930;BME280;21895;47.072;15.132;2023-05-22T05:19:55;96627.00;;;19.07;69.39
20930;BME280;21895;47.072;15.132;2023-05-22T05:22:21;96630.00;;;19.32;67.52
20930;BME280;21895;47.072;15.132;2023-05-22T05:24:48;96630.00;;;19.48;66.77
20930;BME280;21895;47.072;15.132;2023-05-22T05:27:14;96628.00;;;19.75;66.10
20930;BME280;21895;47.072;15.132;2023-05-22T05:29:41;96629.00;;;19.83;65.73
20930;BME280;21895;47.072;15.132;2023-05-22T05:32:08;96621.00;;;20.22;64.72
20930;BME280;21895;47.072;15.132;2023-05-22T05:34:36;96630.00;;;20.25;63.75
20930;BME280;21895;47.072;15.132;2023-05-22T05:37:04;96629.00;;;20.31;63.47
20930;BME280;21895;47.072;15.132;2023-05-22T05:39:31;96635.00;;;20.52;63.92
20930;BME280;21895;47.072;15.132;2023-05-22T05:41:57;96636.00;;;20.70;63.72
20930;BME280;21895;47.072;15.132;2023-05-22T05:44:25;96633.00;;;20.85;63.05
20930;BME280;21895;47.072;15.132;2023-05-22T05:46:51;96632.00;;;21.01;62.60
20930;BME280;21895;47.072;15.132;2023-05-22T05:49:19;96635.00;;;21.14;62.21
20930;BME280;21895;47.072;15.132;2023-05-22T05:51:45;96626.00;;;21.39;60.92
20930;BME280;21895;47.072;15.132;2023-05-22T05:54:12;96626.00;;;21.60;60.61
20930;BME280;21895;47.072;15.132;2023-05-22T05:56:39;96629.00;;;21.86;61.54
20930;BME280;21895;47.072;15.132;2023-05-22T05:59:05;96627.00;;;22.05;60.95
20930;BME280;21895;47.072;15.132;2023-05-22T06:01:33;96633.00;;;22.13;60.81
20930;BME280;21895;47.072;15.132;2023-05-22T06:04:00;96628.00;;;22.26;59.84
20930;BME280;21895;47.072;15.132;2023-05-22T06:06:30;96625.00;;;22.40;59.35
20930;BME280;21895;47.072;15.132;2023-05-22T06:09:05;96625.00;;;22.43;59.63
20930;BME280;21895;47.072;15.132;2023-05-22T06:11:32;96623.00;;;22.63;58.62
20930;BME280;21895;47.072;15.132;2023-05-22T06:14:00;96626.00;;;22.74;59.44
20930;BME280;21895;47.072;15.132;2023-05-22T06:16:30;96628.00;;;22.91;58.38
20930;BME280;21895;47.072;15.132;2023-05-22T06:18:58;96630.00;;;22.88;58.82
20930;BME280;21895;47.072;15.132;2023-05-22T06:21:25;96629.00;;;22.77;58.93
20930;BME280;21895;47.072;15.132;2023-05-22T06:23:51;96625.00;;;22.87;58.96
20930;BME280;21895;47.072;15.132;2023-05-22T06:26:18;96626.00;;;22.98;58.44
20930;BME280;21895;47.072;15.132;2023-05-22T06:28:44;96622.00;;;23.14;58.24
20930;BME280;21895;47.072;15.132;2023-05-22T06:31:11;96619.00;;;23.14;58.63
20930;BME280;21895;47.072;15.132;2023-05-22T06:33:38;96630.00;;;23.30;56.95
20930;BME280;21895;47.072;15.132;2023-05-22T06:36:06;96617.00;;;23.30;56.06
20930;BME280;21895;47.072;15.132;2023-05-22T06:38:33;96622.00;;;23.54;55.52
20930;BME280;21895;47.072;15.132;2023-05-22T06:41:00;96610.00;;;23.77;54.94
20930;BME280;21895;47.072;15.132;2023-05-22T06:43:27;96615.00;;;24.00;54.54
20930;BME280;21895;47.072;15.132;2023-05-22T06:45:53;96622.00;;;24.25;53.49
20930;BME280;21895;47.072;15.132;2023-05-22T06:48:20;96623.00;;;24.40;53.48
20930;BME280;21895;47.072;15.132;2023-05-22T06:50:47;96619.00;;;24.65;52.42
20930;BME280;21895;47.072;15.132;2023-05-22T06:53:13;96618.00;;;24.73;52.60
20930;BME280;21895;47.072;15.132;2023-05-22T06:55:40;96621.00;;;25.02;53.31
20930;BME280;21895;47.072;15.132;2023-05-22T06:58:07;96616.00;;;25.08;51.97
20930;BME280;21895;47.072;15.132;2023-05-22T07:00:33;96625.00;;;25.26;50.95
20930;BME280;21895;47.072;15.132;2023-05-22T07:03:00;96617.00;;;25.42;49.53
20930;BME280;21895;47.072;15.132;2023-05-22T07:05:27;96612.00;;;25.51;50.22
20930;BME280;21895;47.072;15.132;2023-05-22T07:07:53;96612.00;;;25.63;50.08
20930;BME280;21895;47.072;15.132;2023-05-22T07:10:20;96613.00;;;25.70;51.00
20930;BME280;21895;47.072;15.132;2023-05-22T07:12:47;96618.00;;;25.96;47.34
20930;BME280;21895;47.072;15.132;2023-05-22T07:15:14;96611.00;;;25.90;48.01
20930;BME280;21895;47.072;15.132;2023-05-22T07:17:40;96613.00;;;25.88;48.86
20930;BME280;21895;47.072;15.132;2023-05-22T07:20:09;96613.00;;;25.98;50.01
20930;BME280;21895;47.072;15.132;2023-05-22T07:22:41;96621.00;;;26.09;49.80
20930;BME280;21895;47.072;15.132;2023-05-22T07:25:08;96618.00;;;26.27;49.07
20930;BME280;21895;47.072;15.132;2023-05-22T07:27:34;96612.00;;;26.19;49.24
20930;BME280;21895;47.072;15.132;2023-05-22T07:30:01;96608.00;;;26.34;48.11
20930;BME280;21895;47.072;15.132;2023-05-22T07:32:28;96612.00;;;26.33;48.27
20930;BME280;21895;47.072;15.132;2023-05-22T07:34:54;96606.00;;;26.43;49.21
20930;BME280;21895;47.072;15.132;2023-05-22T07:37:21;96617.00;;;26.50;49.29
20930;BME280;21895;47.072;15.132;2023-05-22T07:39:48;96612.00;;;26.55;47.82
20930;BME280;21895;47.072;15.132;2023-05-22T07:42:15;96618.00;;;26.59;48.27
20930;BME280;21895;47.072;15.132;2023-05-22T07:44:41;96612.00;;;26.52;48.89
20930;BME280;21895;47.072;15.132;2023-05-22T07:47:08;96605.00;;;26.66;49.32
20930;BME280;21895;47.072;15.132;2023-05-22T07:49:34;96614.00;;;26.62;48.63
20930;BME280;21895;47.072;15.132;2023-05-22T07:52:01;96606.00;;;26.79;47.17
20930;BME280;21895;47.072;15.132;2023-05-22T07:54:28;96606.00;;;26.93;46.85
20930;BME280;21895;47.072;15.132;2023-05-22T07:56:54;96609.00;;;26.86;47.49
20930;BME280;21895;47.072;15.132;2023-05-22T07:59:21;96600.00;;;27.14;47.02
20930;BME280;21895;47.072;15.132;2023-05-22T08:01:49;96601.00;;;27.30;43.89
20930;BME280;21895;47.072;15.132;2023-05-22T08:04:16;96606.00;;;27.42;43.86
20930;BME280;21895;47.072;15.132;2023-05-22T08:06:43;96596.00;;;27.36;43.38
20930;BME280;21895;47.072;15.132;2023-05-22T08:09:10;96602.00;;;27.61;43.47
20930;BME280;21895;47.072;15.132;2023-05-22T08:11:36;96601.00;;;27.70;41.78
20930;BME280;21895;47.072;15.132;2023-05-22T08:14:05;96600.00;;;27.40;43.38
20930;BME280;21895;47.072;15.132;2023-05-22T08:16:32;96599.00;;;27.64;42.76
20930;BME280;21895;47.072;15.132;2023-05-22T08:18:59;96602.00;;;27.55;42.18
20930;BME280;21895;47.072;15.132;2023-05-22T08:21:26;96596.00;;;27.79;40.67
20930;BME280;21895;47.072;15.132;2023-05-22T08:23:52;96596.00;;;27.58;40.30
20930;BME280;21895;47.072;15.132;2023-05-22T08:26:19;96588.00;;;27.58;41.76
20930;BME280;21895;47.072;15.132;2023-05-22T08:28:45;96589.00;;;27.91;40.32
20930;BME280;21895;47.072;15.132;2023-05-22T08:31:14;96586.00;;;28.25;40.23
20930;BME280;21895;47.072;15.132;2023-05-22T08:33:40;96587.00;;;28.44;40.08
20930;BME280;21895;47.072;15.132;2023-05-22T08:36:07;96578.00;;;28.20;41.01
20930;BME280;21895;47.072;15.132;2023-05-22T08:38:34;96578.00;;;28.19;36.84
20930;BME280;21895;47.072;15.132;2023-05-22T08:41:00;96581.00;;;28.29;38.44
20930;BME280;21895;47.072;15.132;2023-05-22T08:43:28;96578.00;;;28.54;39.26
20930;BME280;21895;47.072;15.132;2023-05-22T08:46:04;96582.00;;;28.56;36.35
20930;BME280;21895;47.072;15.132;2023-05-22T08:48:33;96581.00;;;28.70;36.83
20930;BME280;21895;47.072;15.132;2023-05-22T08:51:04;96576.00;;;28.82;35.47
20930;BME280;21895;47.072;15.132;2023-05-22T08:53:34;96572.00;;;28.31;34.88
20930;BME280;21895;47.072;15.132;2023-05-22T08:56:05;96578.00;;;28.29;35.56
20930;BME280;21895;47.072;15.132;2023-05-22T08:58:35;96571.00;;;28.18;35.04
20930;BME280;21895;47.072;15.132;2023-05-22T09:01:03;96584.00;;;28.61;35.59
20930;BME280;21895;47.072;15.132;2023-05-22T09:03:30;96580.00;;;28.53;35.37
20930;BME280;21895;47.072;15.132;2023-05-22T09:06:02;96576.00;;;28.72;35.37
20930;BME280;21895;47.072;15.132;2023-05-22T09:08:30;96575.00;;;28.41;35.66
20930;BME280;21895;47.072;15.132;2023-05-22T09:10:56;96574.00;;;28.39;36.20
20930;BME280;21895;47.072;15.132;2023-05-22T09:13:30;96577.00;;;28.43;37.78
20930;BME280;21895;47.072;15.132;2023-05-22T09:16:08;96573.00;;;28.17;37.09
20930;BME280;21895;47.072;15.132;2023-05-22T09:18:37;96578.00;;;28.54;36.71
20930;BME280;21895;47.072;15.132;2023-05-22T09:21:05;96572.00;;;28.40;36.48
20930;BME280;21895;47.072;15.132;2023-05-22T09:23:49;96567.00;;;28.62;34.33
20930;BME280;21895;47.072;15.132;2023-05-22T09:26:16;96576.00;;;29.02;36.24
20930;BME280;21895;47.072;15.132;2023-05-22T09:28:42;96570.00;;;29.07;36.09
20930;BME280;21895;47.072;15.132;2023-05-22T09:31:09;96572.00;;;29.01;36.83
20930;BME280;21895;47.072;15.132;2023-05-22T09:33:36;96580.00;;;29.04;37.54
20930;BME280;21895;47.072;15.132;2023-05-22T09:36:07;96569.00;;;29.10;38.00
20930;BME280;21895;47.072;15.132;2023-05-22T09:38:34;96576.00;;;29.14;35.63
20930;BME280;21895;47.072;15.132;2023-05-22T09:41:01;96566.00;;;28.95;35.75
20930;BME280;21895;47.072;15.132;2023-05-22T09:43:28;96573.00;;;28.91;35.45
20930;BME280;21895;47.072;15.132;2023-05-22T09:46:00;96575.00;;;28.89;35.52
20930;BME280;21895;47.072;15.132;2023-05-22T09:48:33;96570.00;;;29.00;36.05
20930;BME280;21895;47.072;15.132;2023-05-22T09:51:03;96572.00;;;28.96;35.50
20930;BME280;21895;47.072;15.132;2023-05-22T09:53:32;96572.00;;;28.76;35.12
20930;BME280;21895;47.072;15.132;2023-05-22T09:56:04;96573.00;;;28.56;36.40
20930;BME280;21895;47.072;15.132;2023-05-22T09:58:37;96571.00;;;28.53;36.53
20930;BME280;21895;47.072;15.132;2023-05-22T10:01:07;96570.00;;;28.35;38.17
20930;BME280;21895;47.072;15.132;2023-05-22T10:03:39;96566.00;;;28.69;38.23
20930;BME280;21895;47.072;15.132;2023-05-22T10:06:10;96563.00;;;28.88;35.69
20930;BME280;21895;47.072;15.132;2023-05-22T10:08:57;96552.00;;;28.76;35.84
20930;BME280;21895;47.072;15.132;2023-05-22T10:11:27;96564.00;;;28.96;34.08
20930;BME280;21895;47.072;15.132;2023-05-22T10:13:55;96556.00;;;28.85;33.83
20930;BME280;21895;47.072;15.132;2023-05-22T10:16:25;96550.00;;;28.65;34.91
20930;BME280;21895;47.072;15.132;2023-05-22T10:18:54;96555.00;;;28.71;34.80
20930;BME280;21895;47.072;15.132;2023-05-22T10:21:21;96552.00;;;28.63;34.80
20930;BME280;21895;47.072;15.132;2023-05-22T10:23:49;96553.00;;;28.54;35.28
20930;BME280;21895;47.072;15.132;2023-05-22T10:26:18;96546.00;;;28.72;36.01
20930;BME280;21895;47.072;15.132;2023-05-22T10:28:56;96545.00;;;28.84;36.11
20930;BME280;21895;47.072;15.132;2023-05-22T10:32:45;96547.00;;;29.10;34.93
20930;BME280;21895;47.072;15.132;2023-05-22T10:35:23;96544.00;;;28.77;35.08
20930;BME280;21895;47.072;15.132;2023-05-22T10:40:43;96546.00;;;28.96;33.83
20930;BME280;21895;47.072;15.132;2023-05-22T10:43:11;96540.00;;;28.38;35.08
20930;BME280;21895;47.072;15.132;2023-05-22T10:45:37;96533.00;;;28.83;34.95
20930;BME280;21895;47.072;15.132;2023-05-22T10:48:07;96533.00;;;28.86;34.38
20930;BME280;21895;47.072;15.132;2023-05-22T10:50:35;96538.00;;;28.84;34.01
20930;BME280;21895;47.072;15.132;2023-05-22T10:53:20;96538.00;;;28.72;33.60
20930;BME280;21895;47.072;15.132;2023-05-22T10:55:52;96528.00;;;28.54;32.01
20930;BME280;21895;47.072;15.132;2023-05-22T10:58:33;96521.00;;;28.63;32.93
20930;BME280;21895;47.072;15.132;2023-05-22T11:02:04;96523.00;;;28.48;35.50
20930;BME280;21895;47.072;15.132;2023-05-22T11:04:31;96513.00;;;28.51;33.33
20930;BME280;21895;47.072;15.132;2023-05-22T11:07:03;96520.00;;;28.52;33.82
20930;BME280;21895;47.072;15.132;2023-05-22T11:09:44;96511.00;;;28.55;32.34
20930;BME280;21895;47.072;15.132;2023-05-22T11:12:46;96509.00;;;28.55;33.90
20930;BME280;21895;47.072;15.132;2023-05-22T11:15:13;96513.00;;;28.47;33.27
20930;BME280;21895;47.072;15.132;2023-05-22T11:17:47;96506.00;;;28.18;34.15
20930;BME280;21895;47.072;15.132;2023-05-22T11:20:24;96504.00;;;28.47;33.70
20930;BME280;21895;47.072;15.132;2023-05-22T11:23:04;96497.00;;;28.21;32.68
20930;BME280;21895;47.072;15.132;2023-05-22T11:25:34;96495.00;;;28.15;35.08
20930;BME280;21895;47.072;15.132;2023-05-22T11:28:03;96491.00;;;28.60;36.06
20930;BME280;21895;47.072;15.132;2023-05-22T11:30:31;96494.00;;;28.56;32.22
20930;BME280;21895;47.072;15.132;2023-05-22T11:33:00;96490.00;;;28.45;32.17
20930;BME280;21895;47.072;15.132;2023-05-22T11:35:28;96481.00;;;28.48;32.33
20930;BME280;21895;47.072;15.132;2023-05-22T11:37:55;96486.00;;;28.56;32.76
20930;BME280;21895;47.072;15.132;2023-05-22T11:40:26;96478.00;;;28.30;32.08
20930;BME280;21895;47.072;15.132;2023-05-22T11:42:55;96470.00;;;28.50;32.50
20930;BME280;21895;47.072;15.132;2023-05-22T11:45:22;96475.00;;;28.81;32.53
20930;BME280;21895;47.072;15.132;2023-05-22T11:47:49;96470.00;;;28.62;31.82
20930;BME280;21895;47.072;15.132;2023-05-22T11:50:16;96476.00;;;28.57;33.79
20930;BME280;21895;47.072;15.132;2023-05-22T11:52:59;96467.00;;;28.67;31.87
20930;BME280;21895;47.072;15.132;2023-05-22T11:55:27;96470.00;;;28.51;33.04
20930;BME280;21895;47.072;15.132;2023-05-22T11:57:54;96463.00;;;28.56;32.49
20930;BME280;21895;47.072;15.132;2023-05-22T12:00:21;96461.00;;;28.69;32.21
20930;BME280;21895;47.072;15.132;2023-05-22T12:02:48;96466.00;;;28.56;32.48
20930;BME280;21895;47.072;15.132;2023-05-22T12:05:15;96462.00;;;28.68;31.48
20930;BME280;21895;47.072;15.132;2023-05-22T12:07:42;96458.00;;;28.87;31.54
20930;BME280;21895;47.072;15.132;2023-05-22T12:10:09;96457.00;;;29.08;31.45
20930;BME280;21895;47.072;15.132;2023-05-22T12:12:36;96461.00;;;29.00;30.30
20930;BME280;21895;47.072;15.132;2023-05-22T12:15:07;96460.00;;;28.84;31.60
20930;BME280;21895;47.072;15.132;2023-05-22T12:17:35;96461.00;;;28.86;31.29
20930;BME280;21895;47.072;15.132;2023-05-22T12:20:05;96464.00;;;28.75;31.79
20930;BME280;21895;47.072;15.132;2023-05-22T12:22:32;96463.00;;;28.31;33.87
20930;BME280;21895;47.072;15.132;2023-05-22T12:24:59;96456.00;;;28.41;33.65
20930;BME280;21895;47.072;15.132;2023-05-22T12:27:29;96460.00;;;28.57;32.67
20930;BME280;21895;47.072;15.132;2023-05-22T12:30:08;96457.00;;;28.62;32.83
20930;BME280;21895;47.072;15.132;2023-05-22T12:32:35;96450.00;;;28.88;31.90
20930;BME280;21895;47.072;15.132;2023-05-22T12:35:02;96448.00;;;28.92;33.16
20930;BME280;21895;47.072;15.132;2023-05-22T12:37:28;96442.00;;;29.09;31.25
20930;BME280;21895;47.072;15.132;2023-05-22T12:40:03;96453.00;;;28.91;31.16
20930;BME280;21895;47.072;15.132;2023-05-22T12:42:30;96452.00;;;28.87;31.70
20930;BME280;21895;47.072;15.132;2023-05-22T12:44:57;96450.00;;;28.86;32.04
20930;BME280;21895;47.072;15.132;2023-05-22T12:47:25;96460.00;;;28.85;33.89
20930;BME280;21895;47.072;15.132;2023-05-22T12:49:52;96450.00;;;28.61;33.48
20930;BME280;21895;47.072;15.132;2023-05-22T12:52:19;96447.00;;;28.67;32.77
20930;BME280;21895;47.072;15.132;2023-05-22T12:54:45;96446.00;;;28.90;32.70
20930;BME280;21895;47.072;15.132;2023-05-22T12:57:12;96439.00;;;28.93;33.19
20930;BME280;21895;47.072;15.132;2023-05-22T12:59:38;96444.00;;;29.14;32.53
20930;BME280;21895;47.072;15.132;2023-05-22T13:02:05;96449.00;;;29.08;33.51
20930;BME280;21895;47.072;15.132;2023-05-22T13:04:32;96445.00;;;29.02;33.71
20930;BME280;21895;47.072;15.132;2023-05-22T13:06:59;96437.00;;;29.39;32.41
20930;BME280;21895;47.072;15.132;2023-05-22T13:09:25;96439.00;;;29.40;32.12
20930;BME280;21895;47.072;15.132;2023-05-22T13:11:52;96429.00;;;29.73;31.66
20930;BME280;21895;47.072;15.132;2023-05-22T13:14:19;96437.00;;;29.66;32.39
20930;BME280;21895;47.072;15.132;2023-05-22T13:16:45;96440.00;;;28.99;32.25
20930;BME280;21895;47.072;15.132;2023-05-22T13:19:12;96437.00;;;28.94;31.60